Tasman Mariner — VRWW8 — position and weather

sailwx.info

Track history (hours):
 
Tides and Currents Weather Stations Pressure Air Temp Water Temp Dewpoint Dewpoint Depression Visibility Wind Speed Wind Dir Waves Ship Positions

Tasman Mariner

Last reported at 2017-Jan-29 09:20 UTC. Time now 2017-Feb-28 01:29 UTC.
Position N 01°15' E 104°05'.
Warning: this ship's position is 29 days out of date.

Length 184 m; beam 27 m; draft 10 m.

Type: Ship (hazmat cat C). MMSI: 477860000.

Date/timePositionNaut miles runAvg speedWind from/ knotsBaromVisibWave heightAir tempDewpointWater temp
2017-Jan-29 09:20N 01°15' E 104°05'911.8
2017-Jan-29 08:33N 01°13' E 103°56'7210.0
2017-Jan-29 01:23N 01°37' E 102°48'2411.3
2017-Jan-28 23:16N 01°48' E 102°27'12 0.3
2017-Jan-26 23:27N 01°56' E 102°18'9 9.9
2017-Jan-26 22:33N 01°52' E 102°26'1310.3
2017-Jan-26 21:19N 01°47' E 102°37'911.3
2017-Jan-26 20:32N 01°44' E 102°46'6310.5
2017-Jan-26 14:30N 01°13' E 103°41'6 4.6
2017-Jan-26 13:17N 01°18' E 103°43'0 0.0
2017-Jan-25 17:09N 01°18' E 103°43'2 2.4
2017-Jan-25 16:31N 01°17' E 103°44'8 8.2
2017-Jan-25 15:33N 01°14' E 103°52'3 2.6
2017-Jan-25 14:34N 01°16' E 103°50'0 0.0
2017-Jan-25 13:33N 01°16' E 103°50'0 0.0
2017-Jan-25 12:33N 01°16' E 103°50'0 0.0
2017-Jan-25 11:27N 01°16' E 103°50'0 0.0
2017-Jan-25 10:33N 01°16' E 103°50'0 0.0
2017-Jan-25 09:33N 01°16' E 103°50'0 0.0
2017-Jan-25 08:30N 01°16' E 103°50'0 0.0
2017-Jan-25 07:31N 01°16' E 103°50'0 0.0
2017-Jan-25 06:31N 01°16' E 103°50'0 0.0
2017-Jan-25 05:31N 01°16' E 103°50'0 0.0
2017-Jan-25 04:31N 01°16' E 103°50'0 0.0
2017-Jan-25 03:31N 01°16' E 103°50'0 0.0
2017-Jan-25 02:31N 01°16' E 103°50'0 0.0
2017-Jan-25 01:31N 01°16' E 103°50'1 0.5
2017-Jan-25 00:33N 01°16' E 103°51'3 2.3
2017-Jan-24 23:16N 01°16' E 103°53'0 0.0
2017-Jan-24 22:22N 01°16' E 103°53'0 0.0
2017-Jan-24 21:28N 01°16' E 103°53'0 0.0
2017-Jan-24 20:16N 01°16' E 103°53'0 0.0
2017-Jan-24 19:22N 01°16' E 103°53'0 0.1
2017-Jan-24 18:31N 01°16' E 103°54'0 0.0
2017-Jan-24 17:28N 01°15' E 103°54'0 0.1
2017-Jan-24 16:22N 01°16' E 103°54'0 0.0
2017-Jan-24 15:29N 01°15' E 103°54'0 0.0
2017-Jan-24 14:32N 01°16' E 103°54'0 0.1
2017-Jan-24 13:33N 01°16' E 103°54'0 0.0
2017-Jan-24 12:28N 01°16' E 103°54'0 0.0
2017-Jan-24 11:28N 01°16' E 103°54'0 0.1
2017-Jan-24 10:28N 01°16' E 103°54'0 0.0
2017-Jan-24 09:31N 01°16' E 103°54'0 0.1
2017-Jan-24 08:28N 01°16' E 103°54'0 0.1
2017-Jan-24 07:25N 01°16' E 103°54'0 0.0
2017-Jan-24 06:13N 01°16' E 103°54'0 0.0
2017-Jan-24 05:22N 01°16' E 103°54'0 0.0
2017-Jan-24 04:04N 01°16' E 103°54'0 0.0
2017-Jan-24 03:28N 01°16' E 103°54'0 0.1
2017-Jan-24 02:31N 01°16' E 103°54'0 0.1
2017-Jan-24 01:22N 01°16' E 103°54'0 0.1
2017-Jan-24 00:22N 01°16' E 103°54'0 0.0
2017-Jan-23 22:31N 01°16' E 103°53'0 0.0
2017-Jan-23 21:28N 01°16' E 103°53'0 0.0
2017-Jan-23 20:22N 01°16' E 103°53'0 0.0
2017-Jan-23 19:25N 01°16' E 103°53'0 0.0
2017-Jan-23 18:16N 01°16' E 103°53'0 0.0
2017-Jan-23 17:16N 01°16' E 103°53'0 0.0
2017-Jan-23 16:28N 01°16' E 103°53'0 0.0
2017-Jan-23 15:22N 01°16' E 103°53'0 0.0
2017-Jan-23 14:28N 01°16' E 103°53'0 0.0
2017-Jan-23 13:25N 01°16' E 103°53'0 0.0
2017-Jan-23 12:31N 01°16' E 103°53'0 0.0
2017-Jan-23 11:25N 01°16' E 103°53'0 0.0
2017-Jan-23 10:31N 01°16' E 103°53'0 0.0
2017-Jan-23 09:31N 01°16' E 103°53'0 0.0
2017-Jan-23 08:19N 01°16' E 103°53'0 0.1
2017-Jan-23 07:31N 01°16' E 103°54'0 0.1
2017-Jan-23 06:25N 01°16' E 103°54'0 0.1
2017-Jan-23 05:31N 01°16' E 103°54'0 0.1
2017-Jan-23 04:28N 01°16' E 103°54'0 0.1
2017-Jan-23 03:25N 01°16' E 103°54'0 0.2
2017-Jan-23 02:22N 01°16' E 103°53'0 0.0
2017-Jan-23 01:31N 01°16' E 103°53'0 0.1
2017-Jan-23 00:28N 01°16' E 103°53'0 0.0
2017-Jan-22 23:10N 01°16' E 103°53'0 0.0
2017-Jan-22 22:31N 01°16' E 103°53'0 0.0
2017-Jan-22 21:31N 01°16' E 103°53'0 0.0
2017-Jan-22 20:28N 01°16' E 103°53'0 0.0
2017-Jan-22 19:31N 01°16' E 103°53'0 0.0
2017-Jan-22 18:22N 01°16' E 103°53'0 0.0
2017-Jan-22 17:28N 01°16' E 103°53'0 0.0
2017-Jan-22 16:31N 01°16' E 103°53'0 0.0
2017-Jan-22 15:31N 01°16' E 103°53'0 0.0
2017-Jan-22 14:31N 01°16' E 103°53'0 0.0
2017-Jan-22 13:07N 01°16' E 103°53'0 0.0
2017-Jan-22 12:31N 01°16' E 103°53'0 0.0
2017-Jan-22 11:25N 01°16' E 103°53'0 0.0
2017-Jan-22 10:31N 01°16' E 103°53'0 0.0
2017-Jan-22 09:31N 01°16' E 103°53'0 0.0
2017-Jan-22 08:28N 01°16' E 103°53'0 0.0
2017-Jan-22 07:31N 01°16' E 103°53'0 0.1
2017-Jan-22 06:25N 01°15' E 103°54'0 0.1
2017-Jan-22 05:28N 01°15' E 103°54'0 0.1
2017-Jan-22 04:31N 01°15' E 103°54'0 0.0
2017-Jan-22 03:28N 01°15' E 103°54'0 0.0
2017-Jan-22 02:28N 01°15' E 103°54'0 0.0
2017-Jan-22 01:31N 01°15' E 103°54'0 0.1
2017-Jan-22 00:31N 01°15' E 103°54'0 0.0
2017-Jan-21 22:28N 01°16' E 103°54'0 0.0
2017-Jan-21 21:04N 01°16' E 103°54'0 0.0
2017-Jan-21 20:31N 01°16' E 103°54'0 0.0
2017-Jan-21 18:22N 01°16' E 103°53'0 0.0
2017-Jan-21 16:31N 01°16' E 103°53'0 0.0
2017-Jan-21 14:31N 01°16' E 103°54'0 0.0
2017-Jan-21 13:25N 01°16' E 103°54'0 0.1
2017-Jan-21 12:22N 01°16' E 103°53'0 0.0
2017-Jan-21 11:28N 01°16' E 103°53'0 0.0
2017-Jan-21 10:28N 01°16' E 103°53'0 0.1
2017-Jan-21 09:31N 01°16' E 103°54'0 0.0
2017-Jan-21 08:28N 01°16' E 103°54'0 0.2
2017-Jan-21 07:31N 01°16' E 103°54'0 0.2
2017-Jan-21 06:28N 01°16' E 103°53'0 0.0
2017-Jan-21 05:28N 01°16' E 103°53'0 0.1
2017-Jan-21 04:25N 01°16' E 103°54'0 0.1
2017-Jan-21 03:31N 01°16' E 103°53'0 0.1
2017-Jan-21 02:25N 01°16' E 103°54'0 0.0
2017-Jan-21 01:28N 01°16' E 103°54'0 0.0
2017-Jan-21 00:25N 01°16' E 103°54'0 0.0
2017-Jan-20 21:28N 01°16' E 103°53'0 0.0
2017-Jan-20 20:31N 01°16' E 103°53'0 0.0
2017-Jan-20 19:28N 01°16' E 103°53'0 0.0
2017-Jan-20 18:31N 01°16' E 103°53'0 0.0
2017-Jan-20 17:28N 01°16' E 103°53'0 0.0
2017-Jan-20 16:16N 01°16' E 103°53'0 0.0
2017-Jan-20 15:28N 01°16' E 103°53'0 0.0
2017-Jan-20 14:31N 01°16' E 103°53'0 0.0
2017-Jan-20 13:28N 01°16' E 103°53'0 0.2
2017-Jan-20 12:25N 01°16' E 103°54'0 0.0
2017-Jan-20 11:25N 01°16' E 103°54'0 0.0
2017-Jan-20 10:28N 01°16' E 103°54'0 0.0
2017-Jan-20 09:31N 01°16' E 103°54'0 0.0
2017-Jan-20 08:28N 01°16' E 103°54'0 0.0
2017-Jan-20 07:16N 01°16' E 103°54'0 0.1
2017-Jan-20 06:31N 01°16' E 103°54'0 0.0
2017-Jan-20 05:28N 01°16' E 103°54'0 0.1
2017-Jan-20 04:31N 01°16' E 103°54'0 0.1
2017-Jan-20 03:31N 01°16' E 103°54'0 0.0
2017-Jan-20 02:22N 01°16' E 103°54'0 0.0
2017-Jan-20 01:31N 01°16' E 103°54'0 0.1
2017-Jan-20 00:28N 01°16' E 103°54'0 0.1
2017-Jan-19 23:28N 01°16' E 103°54'0 0.1
2017-Jan-19 22:28N 01°16' E 103°54'0 0.1
2017-Jan-19 21:16N 01°16' E 103°53'0 0.0
2017-Jan-19 20:28N 01°16' E 103°53'0 0.0
2017-Jan-19 19:31N 01°16' E 103°53'0 0.0
2017-Jan-19 18:31N 01°16' E 103°53'0 0.0
2017-Jan-19 17:31N 01°16' E 103°53'0 0.0
2017-Jan-19 16:28N 01°16' E 103°53'0 0.0
2017-Jan-19 15:22N 01°16' E 103°53'0 0.1
2017-Jan-19 14:19N 01°16' E 103°54'0 0.1
2017-Jan-19 13:22N 01°16' E 103°54'0 0.0
2017-Jan-19 12:22N 01°16' E 103°54'0 0.0
2017-Jan-19 11:31N 01°16' E 103°54'0 0.0
2017-Jan-19 10:22N 01°16' E 103°54'0 0.1
2017-Jan-19 09:28N 01°15' E 103°54'  
Track history (hours):
 
Tides and Currents Weather Stations Pressure Air Temp Water Temp Dewpoint Dewpoint Depression Visibility Wind Speed Wind Dir Waves Ship Positions

Tasman Mariner

Last reported at 2017-Jan-29 09:20 UTC. Time now 2017-Feb-28 01:29 UTC.
Position N 01°15' E 104°05'.
Warning: this ship's position is 29 days out of date.

Length 184 m; beam 27 m; draft 10 m.

Type: Ship (hazmat cat C). MMSI: 477860000.

Date/timePositionNaut miles runAvg speedWind from/ knotsBaromVisibWave heightAir tempDewpointWater temp
2017-Jan-29 09:20N 01°15' E 104°05'911.8
2017-Jan-29 08:33N 01°13' E 103°56'7210.0
2017-Jan-29 01:23N 01°37' E 102°48'2411.3
2017-Jan-28 23:16N 01°48' E 102°27'12 0.3
2017-Jan-26 23:27N 01°56' E 102°18'9 9.9
2017-Jan-26 22:33N 01°52' E 102°26'1310.3
2017-Jan-26 21:19N 01°47' E 102°37'911.3
2017-Jan-26 20:32N 01°44' E 102°46'6310.5
2017-Jan-26 14:30N 01°13' E 103°41'6 4.6
2017-Jan-26 13:17N 01°18' E 103°43'0 0.0
2017-Jan-25 17:09N 01°18' E 103°43'2 2.4
2017-Jan-25 16:31N 01°17' E 103°44'8 8.2
2017-Jan-25 15:33N 01°14' E 103°52'3 2.6
2017-Jan-25 14:34N 01°16' E 103°50'0 0.0
2017-Jan-25 13:33N 01°16' E 103°50'0 0.0
2017-Jan-25 12:33N 01°16' E 103°50'0 0.0
2017-Jan-25 11:27N 01°16' E 103°50'0 0.0
2017-Jan-25 10:33N 01°16' E 103°50'0 0.0
2017-Jan-25 09:33N 01°16' E 103°50'0 0.0
2017-Jan-25 08:30N 01°16' E 103°50'0 0.0
2017-Jan-25 07:31N 01°16' E 103°50'0 0.0
2017-Jan-25 06:31N 01°16' E 103°50'0 0.0
2017-Jan-25 05:31N 01°16' E 103°50'0 0.0
2017-Jan-25 04:31N 01°16' E 103°50'0 0.0
2017-Jan-25 03:31N 01°16' E 103°50'0 0.0
2017-Jan-25 02:31N 01°16' E 103°50'0 0.0
2017-Jan-25 01:31N 01°16' E 103°50'1 0.5
2017-Jan-25 00:33N 01°16' E 103°51'3 2.3
2017-Jan-24 23:16N 01°16' E 103°53'0 0.0
2017-Jan-24 22:22N 01°16' E 103°53'0 0.0
2017-Jan-24 21:28N 01°16' E 103°53'0 0.0
2017-Jan-24 20:16N 01°16' E 103°53'0 0.0
2017-Jan-24 19:22N 01°16' E 103°53'0 0.1
2017-Jan-24 18:31N 01°16' E 103°54'0 0.0
2017-Jan-24 17:28N 01°15' E 103°54'0 0.1
2017-Jan-24 16:22N 01°16' E 103°54'0 0.0
2017-Jan-24 15:29N 01°15' E 103°54'0 0.0
2017-Jan-24 14:32N 01°16' E 103°54'0 0.1
2017-Jan-24 13:33N 01°16' E 103°54'0 0.0
2017-Jan-24 12:28N 01°16' E 103°54'0 0.0
2017-Jan-24 11:28N 01°16' E 103°54'0 0.1
2017-Jan-24 10:28N 01°16' E 103°54'0 0.0
2017-Jan-24 09:31N 01°16' E 103°54'0 0.1
2017-Jan-24 08:28N 01°16' E 103°54'0 0.1
2017-Jan-24 07:25N 01°16' E 103°54'0 0.0
2017-Jan-24 06:13N 01°16' E 103°54'0 0.0
2017-Jan-24 05:22N 01°16' E 103°54'0 0.0
2017-Jan-24 04:04N 01°16' E 103°54'0 0.0
2017-Jan-24 03:28N 01°16' E 103°54'0 0.1
2017-Jan-24 02:31N 01°16' E 103°54'0 0.1
2017-Jan-24 01:22N 01°16' E 103°54'0 0.1
2017-Jan-24 00:22N 01°16' E 103°54'0 0.0
2017-Jan-23 22:31N 01°16' E 103°53'0 0.0
2017-Jan-23 21:28N 01°16' E 103°53'0 0.0
2017-Jan-23 20:22N 01°16' E 103°53'0 0.0
2017-Jan-23 19:25N 01°16' E 103°53'0 0.0
2017-Jan-23 18:16N 01°16' E 103°53'0 0.0
2017-Jan-23 17:16N 01°16' E 103°53'0 0.0
2017-Jan-23 16:28N 01°16' E 103°53'0 0.0
2017-Jan-23 15:22N 01°16' E 103°53'0 0.0
2017-Jan-23 14:28N 01°16' E 103°53'0 0.0
2017-Jan-23 13:25N 01°16' E 103°53'0 0.0
2017-Jan-23 12:31N 01°16' E 103°53'0 0.0
2017-Jan-23 11:25N 01°16' E 103°53'0 0.0
2017-Jan-23 10:31N 01°16' E 103°53'0 0.0
2017-Jan-23 09:31N 01°16' E 103°53'0 0.0
2017-Jan-23 08:19N 01°16' E 103°53'0 0.1
2017-Jan-23 07:31N 01°16' E 103°54'0 0.1
2017-Jan-23 06:25N 01°16' E 103°54'0 0.1
2017-Jan-23 05:31N 01°16' E 103°54'0 0.1
2017-Jan-23 04:28N 01°16' E 103°54'0 0.1
2017-Jan-23 03:25N 01°16' E 103°54'0 0.2
2017-Jan-23 02:22N 01°16' E 103°53'0 0.0
2017-Jan-23 01:31N 01°16' E 103°53'0 0.1
2017-Jan-23 00:28N 01°16' E 103°53'0 0.0
2017-Jan-22 23:10N 01°16' E 103°53'0 0.0
2017-Jan-22 22:31N 01°16' E 103°53'0 0.0
2017-Jan-22 21:31N 01°16' E 103°53'0 0.0
2017-Jan-22 20:28N 01°16' E 103°53'0 0.0
2017-Jan-22 19:31N 01°16' E 103°53'0 0.0
2017-Jan-22 18:22N 01°16' E 103°53'0 0.0
2017-Jan-22 17:28N 01°16' E 103°53'0 0.0
2017-Jan-22 16:31N 01°16' E 103°53'0 0.0
2017-Jan-22 15:31N 01°16' E 103°53'0 0.0
2017-Jan-22 14:31N 01°16' E 103°53'0 0.0
2017-Jan-22 13:07N 01°16' E 103°53'0 0.0
2017-Jan-22 12:31N 01°16' E 103°53'0 0.0
2017-Jan-22 11:25N 01°16' E 103°53'0 0.0
2017-Jan-22 10:31N 01°16' E 103°53'0 0.0
2017-Jan-22 09:31N 01°16' E 103°53'0 0.0
2017-Jan-22 08:28N 01°16' E 103°53'0 0.0
2017-Jan-22 07:31N 01°16' E 103°53'0 0.1
2017-Jan-22 06:25N 01°15' E 103°54'0 0.1
2017-Jan-22 05:28N 01°15' E 103°54'0 0.1
2017-Jan-22 04:31N 01°15' E 103°54'0 0.0
2017-Jan-22 03:28N 01°15' E 103°54'0 0.0
2017-Jan-22 02:28N 01°15' E 103°54'0 0.0
2017-Jan-22 01:31N 01°15' E 103°54'0 0.1
2017-Jan-22 00:31N 01°15' E 103°54'0 0.0
2017-Jan-21 22:28N 01°16' E 103°54'0 0.0
2017-Jan-21 21:04N 01°16' E 103°54'0 0.0
2017-Jan-21 20:31N 01°16' E 103°54'0 0.0
2017-Jan-21 18:22N 01°16' E 103°53'0 0.0
2017-Jan-21 16:31N 01°16' E 103°53'0 0.0
2017-Jan-21 14:31N 01°16' E 103°54'0 0.0
2017-Jan-21 13:25N 01°16' E 103°54'0 0.1
2017-Jan-21 12:22N 01°16' E 103°53'0 0.0
2017-Jan-21 11:28N 01°16' E 103°53'0 0.0
2017-Jan-21 10:28N 01°16' E 103°53'0 0.1
2017-Jan-21 09:31N 01°16' E 103°54'0 0.0
2017-Jan-21 08:28N 01°16' E 103°54'0 0.2
2017-Jan-21 07:31N 01°16' E 103°54'0 0.2
2017-Jan-21 06:28N 01°16' E 103°53'0 0.0
2017-Jan-21 05:28N 01°16' E 103°53'0 0.1
2017-Jan-21 04:25N 01°16' E 103°54'0 0.1
2017-Jan-21 03:31N 01°16' E 103°53'0 0.1
2017-Jan-21 02:25N 01°16' E 103°54'0 0.0
2017-Jan-21 01:28N 01°16' E 103°54'0 0.0
2017-Jan-21 00:25N 01°16' E 103°54'0 0.0
2017-Jan-20 21:28N 01°16' E 103°53'0 0.0
2017-Jan-20 20:31N 01°16' E 103°53'0 0.0
2017-Jan-20 19:28N 01°16' E 103°53'0 0.0
2017-Jan-20 18:31N 01°16' E 103°53'0 0.0
2017-Jan-20 17:28N 01°16' E 103°53'0 0.0
2017-Jan-20 16:16N 01°16' E 103°53'0 0.0
2017-Jan-20 15:28N 01°16' E 103°53'0 0.0
2017-Jan-20 14:31N 01°16' E 103°53'0 0.0
2017-Jan-20 13:28N 01°16' E 103°53'0 0.2
2017-Jan-20 12:25N 01°16' E 103°54'0 0.0
2017-Jan-20 11:25N 01°16' E 103°54'0 0.0
2017-Jan-20 10:28N 01°16' E 103°54'0 0.0
2017-Jan-20 09:31N 01°16' E 103°54'0 0.0
2017-Jan-20 08:28N 01°16' E 103°54'0 0.0
2017-Jan-20 07:16N 01°16' E 103°54'0 0.1
2017-Jan-20 06:31N 01°16' E 103°54'0 0.0
2017-Jan-20 05:28N 01°16' E 103°54'0 0.1
2017-Jan-20 04:31N 01°16' E 103°54'0 0.1
2017-Jan-20 03:31N 01°16' E 103°54'0 0.0
2017-Jan-20 02:22N 01°16' E 103°54'0 0.0
2017-Jan-20 01:31N 01°16' E 103°54'0 0.1
2017-Jan-20 00:28N 01°16' E 103°54'0 0.1
2017-Jan-19 23:28N 01°16' E 103°54'0 0.1
2017-Jan-19 22:28N 01°16' E 103°54'0 0.1
2017-Jan-19 21:16N 01°16' E 103°53'0 0.0
2017-Jan-19 20:28N 01°16' E 103°53'0 0.0
2017-Jan-19 19:31N 01°16' E 103°53'0 0.0
2017-Jan-19 18:31N 01°16' E 103°53'0 0.0
2017-Jan-19 17:31N 01°16' E 103°53'0 0.0
2017-Jan-19 16:28N 01°16' E 103°53'0 0.0
2017-Jan-19 15:22N 01°16' E 103°53'0 0.1
2017-Jan-19 14:19N 01°16' E 103°54'0 0.1
2017-Jan-19 13:22N 01°16' E 103°54'0 0.0
2017-Jan-19 12:22N 01°16' E 103°54'0 0.0
2017-Jan-19 11:31N 01°16' E 103°54'0 0.0
2017-Jan-19 10:22N 01°16' E 103°54'0 0.1
2017-Jan-19 09:28N 01°15' E 103°54'  

Dump ship's entire track history